Other Surface Observations
Issued by NWS Great Falls, MT

Home | Current Version | Previous Version | Text Only | Print | Product List | Glossary On
Versions: 1 2 3 4 5 6 7 8 9 10 11 12 13 14 15 16 17 18 19 20 21 22 23 24 25 26 27 28 29 30 31 32 33 34 35 36 37 38 39 40 41 42 43 44 45 46 47 48 49 50
000
SXUS55 KTFX 290140
OSOTFX
AREA AWOS OBSERVATIONS
NATIONAL WEATHER SERVICE GREAT FALLS MT
0735 PM MDT FRI AUG 28 2015

METAR KPWD 290130Z AUTO 26006KT 3SM 25/08 A2990 RMK PLENTYWOOD
METAR KPO1 290130Z AUTO 00000KT 3SM 27/06 A2990 RMK POPLAR
METAR K1S3 290130Z AUTO 13004KT 4SM 28/06 A2996 RMK FORSYTH
METAR KS71 290130Z AUTO 09005KT 4SM 25/11 A2984 RMK CHINOOK
METAR K79S 290130Z AUTO 00000KT 10SM 31/02 A2987 RMK FORT BENTON
METAR K38S 290130Z AUTO 32014G20KT 1 1/2SM 24/04 A3010 RMK DEER LODGE
METAR K3U3 290130Z AUTO 24013G18KT 25/03 A3008 RMK ANACONDA
METAR K6S5 290130Z AUTO 32003KT 10SM 22/08 A3001 RMK HAMILTON
METAR KS59 290130Z AUTO 17005KT 10SM 26/06 A2994 RMK LIBBY
METAR K88M 290130Z AUTO 10003KT 10SM 24/06 A2994 RMK EUREKA



USA.gov is the U.S. government's official web portal to all federal, state and local government web resources and services.